Time;durP1;ratioP1;P1;durP2;ratioP2;P2;SDS_P1;SDS_P2;PMS_P1;PMS_P2;Temp;Humidity;BMP_temperature;BMP_pressure;BME280_temperature;BME280_humidity;BME280_pressure;Samples;Min_cycle;Max_cycle;Signal;HPM_P1;HPM_P2
2023/10/31 00:00:45;;;;;;;9.00;1.02;;;18.10;59.30;;;;;;4843961;29;20453;-86
2023/10/31 00:03:13;;;;;;;5.60;1.10;;;18.10;59.40;;;;;;4850159;29;20049;-86
2023/10/31 00:05:40;;;;;;;7.43;1.00;;;18.00;59.60;;;;;;4865359;29;20511;-86
2023/10/31 00:08:07;;;;;;;6.65;1.50;;;18.00;59.40;;;;;;4865628;29;20045;-86
2023/10/31 00:10:34;;;;;;;7.70;0.93;;;18.00;59.40;;;;;;4880640;29;20147;-86
2023/10/31 00:13:01;;;;;;;10.65;2.95;;;17.90;59.40;;;;;;4865457;29;20057;-86
2023/10/31 00:15:30;;;;;;;6.80;1.47;;;18.00;58.70;;;;;;4880266;29;20057;-86
2023/10/31 00:17:58;;;;;;;8.27;1.48;;;18.00;58.40;;;;;;4850001;29;20049;-86
2023/10/31 00:20:25;;;;;;;9.02;1.40;;;18.10;58.20;;;;;;4865117;29;20055;-86
2023/10/31 00:22:52;;;;;;;8.10;1.48;;;18.10;57.80;;;;;;4868005;29;20056;-85
2023/10/31 00:25:19;;;;;;;9.80;2.00;;;18.20;57.40;;;;;;4883678;29;20044;-85
2023/10/31 00:27:46;;;;;;;9.07;1.10;;;18.20;57.30;;;;;;4883659;29;20551;-86
2023/10/31 00:30:13;;;;;;;4.10;0.90;;;18.10;56.70;;;;;;4899134;29;20049;-85
2023/10/31 00:32:40;;;;;;;8.82;1.13;;;18.10;56.70;;;;;;4883590;29;20101;-86
2023/10/31 00:35:08;;;;;;;3.28;0.75;;;18.00;56.70;;;;;;4861752;29;20049;-86
2023/10/31 00:37:35;;;;;;;5.18;0.90;;;18.00;56.20;;;;;;4846622;29;20045;-86
2023/10/31 00:40:02;;;;;;;4.27;0.97;;;18.00;56.60;;;;;;4870106;29;20049;-86
2023/10/31 00:42:30;;;;;;;6.30;1.52;;;18.00;56.40;;;;;;4883325;29;20142;-85
2023/10/31 00:44:57;;;;;;;5.93;1.02;;;17.90;56.70;;;;;;4867683;29;20063;-86
2023/10/31 00:47:24;;;;;;;4.40;0.80;;;17.90;56.50;;;;;;4883922;29;20055;-86
2023/10/31 00:49:53;;;;;;;2.88;0.73;;;17.80;56.70;;;;;;4879119;29;20438;-86
2023/10/31 00:52:20;;;;;;;4.63;0.90;;;17.80;57.20;;;;;;4867660;29;20518;-86
2023/10/31 00:54:48;;;;;;;7.65;1.10;;;17.70;57.10;;;;;;4865008;29;20073;-86
2023/10/31 00:57:15;;;;;;;4.78;0.80;;;17.60;57.40;;;;;;4849150;29;20053;-86
2023/10/31 00:59:43;;;;;;;3.10;0.73;;;17.60;57.30;;;;;;4849464;29;20511;-86
2023/10/31 01:02:10;;;;;;;4.43;0.80;;;17.60;56.90;;;;;;4848570;29;20080;-86
2023/10/31 01:04:37;;;;;;;5.00;0.93;;;17.60;57.20;;;;;;4861374;29;20065;-86
2023/10/31 01:07:04;;;;;;;4.22;0.80;;;17.50;57.70;;;;;;4843768;29;20139;-86
2023/10/31 01:09:31;;;;;;;4.43;1.00;;;17.50;57.80;;;;;;4855781;29;20048;-86
2023/10/31 01:11:58;;;;;;;5.85;0.80;;;17.50;57.80;;;;;;4861679;29;20045;-86
2023/10/31 01:14:25;;;;;;;4.75;1.00;;;17.50;57.90;;;;;;4827343;29;20050;-86
2023/10/31 01:16:54;;;;;;;5.40;1.33;;;17.50;57.80;;;;;;4824599;29;20149;-86
2023/10/31 01:19:21;;;;;;;5.90;1.25;;;17.50;58.00;;;;;;4829424;29;20054;-86
2023/10/31 01:21:48;;;;;;;4.75;0.80;;;17.50;57.80;;;;;;4835255;29;20042;-86
2023/10/31 01:24:15;;;;;;;7.30;0.95;;;17.50;57.80;;;;;;4853806;29;20573;-86
2023/10/31 01:26:42;;;;;;;6.18;0.82;;;17.50;57.40;;;;;;4845797;29;20042;-86
2023/10/31 01:29:10;;;;;;;4.27;0.80;;;17.50;57.10;;;;;;4809080;29;20054;-86
2023/10/31 01:31:37;;;;;;;4.07;0.75;;;17.50;57.40;;;;;;4809200;29;20145;-86
2023/10/31 01:34:22;;;;;;;3.33;0.70;;;17.50;57.60;;;;;;4835546;29;20049;-86
2023/10/31 01:36:49;;;;;;;3.65;0.82;;;17.50;56.90;;;;;;4845318;29;20042;-86
2023/10/31 01:39:16;;;;;;;5.80;0.90;;;17.50;57.30;;;;;;4845606;29;20055;-86
2023/10/31 01:41:43;;;;;;;6.30;1.00;;;17.50;57.00;;;;;;4860701;29;20404;-86
2023/10/31 01:44:10;;;;;;;4.13;0.82;;;17.50;56.80;;;;;;4845262;29;20519;-86
2023/10/31 01:46:37;;;;;;;7.40;1.02;;;17.50;56.60;;;;;;4845416;29;20102;-86
2023/10/31 01:49:05;;;;;;;5.28;1.10;;;17.50;57.00;;;;;;4845302;29;20152;-86
2023/10/31 01:51:32;;;;;;;4.97;0.90;;;17.50;56.60;;;;;;4845279;29;20037;-86
2023/10/31 01:53:59;;;;;;;5.03;0.87;;;17.60;56.90;;;;;;4845079;29;20515;-86
2023/10/31 01:56:27;;;;;;;4.70;0.80;;;17.60;56.60;;;;;;4861603;29;20042;-86
2023/10/31 01:58:54;;;;;;;3.10;0.80;;;17.60;57.10;;;;;;4845256;29;20503;-86
2023/10/31 02:01:21;;;;;;;4.32;1.00;;;17.60;56.60;;;;;;4829306;29;20050;-86
2023/10/31 02:03:48;;;;;;;5.75;1.10;;;17.60;57.10;;;;;;4831184;29;20058;-86
2023/10/31 02:06:16;;;;;;;4.57;0.80;;;17.60;57.00;;;;;;4841881;29;20049;-86
2023/10/31 02:08:43;;;;;;;4.55;0.80;;;17.60;57.10;;;;;;4857454;29;20046;-86
2023/10/31 02:11:10;;;;;;;7.45;1.27;;;17.50;57.10;;;;;;4826801;29;20054;-86
2023/10/31 02:13:39;;;;;;;4.72;0.90;;;17.60;57.10;;;;;;4840663;29;20058;-86
2023/10/31 02:16:06;;;;;;;5.20;1.17;;;17.60;56.70;;;;;;4826927;29;20385;-86
2023/10/31 02:18:34;;;;;;;5.77;0.97;;;17.70;56.90;;;;;;4840892;29;20053;-86
2023/10/31 02:21:01;;;;;;;5.85;0.80;;;17.70;56.30;;;;;;4859998;29;20064;-86
2023/10/31 02:23:28;;;;;;;5.13;1.30;;;17.70;56.80;;;;;;4842628;29;20441;-86
2023/10/31 02:25:55;;;;;;;6.13;1.20;;;17.70;56.60;;;;;;4832413;29;20050;-85
2023/10/31 02:28:22;;;;;;;5.40;0.80;;;17.70;56.30;;;;;;4860221;29;20102;-86
2023/10/31 02:30:49;;;;;;;5.03;1.00;;;17.70;56.70;;;;;;4856801;29;20121;-86
2023/10/31 02:33:17;;;;;;;5.40;1.02;;;17.70;56.50;;;;;;4856856;29;20144;-86
2023/10/31 02:35:45;;;;;;;5.22;0.93;;;17.70;56.80;;;;;;4844299;29;20112;-86
2023/10/31 02:38:12;;;;;;;7.25;1.13;;;17.70;56.90;;;;;;4838318;29;20145;-85
2023/10/31 02:40:39;;;;;;;6.47;1.35;;;17.60;56.50;;;;;;4850999;29;20136;-85
2023/10/31 02:43:06;;;;;;;9.33;1.03;;;17.60;57.20;;;;;;4844379;29;20041;-86
2023/10/31 02:45:33;;;;;;;4.60;1.00;;;17.60;57.30;;;;;;4844280;29;20045;-86
2023/10/31 02:48:00;;;;;;;4.32;1.23;;;17.60;57.10;;;;;;4844338;29;20583;-86
2023/10/31 02:50:28;;;;;;;6.95;1.42;;;17.60;57.10;;;;;;4859659;29;20060;-85
2023/10/31 02:52:55;;;;;;;4.72;1.30;;;17.60;57.10;;;;;;4859938;29;20061;-86
2023/10/31 02:55:22;;;;;;;9.00;1.27;;;17.60;57.10;;;;;;4839894;29;20077;-86
2023/10/31 02:57:49;;;;;;;5.63;1.00;;;17.70;56.60;;;;;;4826233;29;20424;-86
2023/10/31 03:00:16;;;;;;;6.15;1.40;;;17.70;56.80;;;;;;4840516;29;20064;-86
2023/10/31 03:02:43;;;;;;;7.85;1.60;;;17.70;57.10;;;;;;4844330;29;20144;-86
2023/10/31 03:05:10;;;;;;;13.57;2.85;;;17.80;57.10;;;;;;4863673;29;20751;-86
2023/10/31 03:07:37;;;;;;;8.80;2.03;;;17.80;56.70;;;;;;4825774;29;20050;-86
2023/10/31 03:10:05;;;;;;;10.23;2.15;;;17.90;56.60;;;;;;4841045;29;20041;-86
2023/10/31 03:12:33;;;;;;;8.30;1.90;;;18.00;56.40;;;;;;4856315;29;20137;-86
2023/10/31 03:15:00;;;;;;;7.13;1.40;;;18.00;56.30;;;;;;4856604;29;20122;-86
2023/10/31 03:17:28;;;;;;;8.15;1.20;;;18.00;56.30;;;;;;4826024;29;20145;-86
2023/10/31 03:19:55;;;;;;;7.97;1.37;;;18.00;56.00;;;;;;4841279;29;20520;-86
2023/10/31 03:22:22;;;;;;;6.18;1.60;;;18.00;56.70;;;;;;4840971;29;20050;-86
2023/10/31 03:24:49;;;;;;;6.47;1.20;;;17.80;56.70;;;;;;4856813;29;20098;-86
2023/10/31 03:27:16;;;;;;;7.50;1.45;;;17.70;56.40;;;;;;4861421;29;20057;-86
2023/10/31 03:29:43;;;;;;;9.68;1.42;;;17.70;57.00;;;;;;4878267;29;20049;-86
2023/10/31 03:32:11;;;;;;;9.23;1.50;;;17.70;57.20;;;;;;4893314;29;20084;-86
2023/10/31 03:34:38;;;;;;;7.50;1.50;;;17.70;57.20;;;;;;4897081;29;20037;-86
2023/10/31 03:37:05;;;;;;;4.88;1.17;;;17.60;57.10;;;;;;4857898;29;20141;-86
2023/10/31 03:39:32;;;;;;;7.35;1.98;;;17.60;57.40;;;;;;4845523;29;20042;-86
2023/10/31 03:42:00;;;;;;;8.18;1.42;;;17.60;57.40;;;;;;4859497;29;20046;-86
2023/10/31 03:44:27;;;;;;;10.30;1.97;;;17.60;57.50;;;;;;4859452;29;20054;-86
2023/10/31 03:46:55;;;;;;;9.13;1.83;;;17.60;58.10;;;;;;4859589;29;20132;-86
2023/10/31 03:49:22;;;;;;;7.20;1.20;;;17.60;57.90;;;;;;4859370;29;20430;-86
2023/10/31 03:51:49;;;;;;;7.90;1.80;;;17.50;57.70;;;;;;4844087;29;20077;-86
2023/10/31 03:54:17;;;;;;;7.28;1.63;;;17.50;57.70;;;;;;4844027;29;20441;-86
2023/10/31 03:56:44;;;;;;;6.83;1.60;;;17.50;57.70;;;;;;4843976;29;20477;-86
2023/10/31 03:59:12;;;;;;;7.10;1.85;;;17.50;57.50;;;;;;4843991;29;20049;-86
2023/10/31 04:01:40;;;;;;;10.43;1.83;;;17.50;57.70;;;;;;4859379;29;20054;-86
2023/10/31 04:04:07;;;;;;;7.80;1.88;;;17.50;57.70;;;;;;4843752;29;20382;-85
2023/10/31 04:06:34;;;;;;;10.20;2.40;;;17.50;57.50;;;;;;4859269;29;20046;-86
2023/10/31 04:09:01;;;;;;;10.07;2.87;;;17.60;57.60;;;;;;4873775;29;20045;-86
2023/10/31 04:11:29;;;;;;;15.27;3.00;;;17.60;57.80;;;;;;4862347;29;20069;-88
2023/10/31 04:13:56;;;;;;;13.95;3.13;;;17.60;57.90;;;;;;4860701;29;20054;-86
2023/10/31 04:16:23;;;;;;;8.77;1.67;;;17.60;57.80;;;;;;4857292;29;20056;-86
2023/10/31 04:18:50;;;;;;;11.40;2.53;;;17.60;56.00;;;;;;4845564;29;20089;-85
2023/10/31 04:21:17;;;;;;;8.97;2.00;;;17.80;55.90;;;;;;4840348;29;20050;-85
2023/10/31 04:23:44;;;;;;;9.80;2.10;;;17.90;55.90;;;;;;4839862;29;20037;-85
2023/10/31 04:26:11;;;;;;;8.88;2.53;;;17.90;56.20;;;;;;4861492;29;20046;-86
2023/10/31 04:28:39;;;;;;;10.60;2.28;;;17.90;56.20;;;;;;4846483;29;20572;-86
2023/10/31 04:31:06;;;;;;;10.35;1.92;;;17.80;56.60;;;;;;4842514;29;20042;-86
2023/10/31 04:33:33;;;;;;;5.20;1.53;;;17.70;56.70;;;;;;4858703;29;20069;-86
2023/10/31 04:36:02;;;;;;;8.93;1.83;;;17.70;56.30;;;;;;4862733;29;20141;-85
2023/10/31 04:38:31;;;;;;;7.30;1.70;;;17.80;55.50;;;;;;4859097;29;20046;-86
2023/10/31 04:41:01;;;;;;;6.18;1.42;;;17.80;55.60;;;;;;4846724;29;20104;-85
2023/10/31 04:43:28;;;;;;;11.32;2.10;;;17.80;55.70;;;;;;4840051;29;20053;-86
2023/10/31 04:45:55;;;;;;;14.50;2.20;;;17.80;55.90;;;;;;4865752;29;20162;-86
2023/10/31 04:48:22;;;;;;;9.52;1.63;;;17.90;54.10;;;;;;4856391;29;20457;-85
2023/10/31 04:50:49;;;;;;;8.52;1.88;;;18.00;53.10;;;;;;4849280;29;20122;-85
2023/10/31 04:53:16;;;;;;;4.90;1.17;;;18.10;53.50;;;;;;4863457;29;20050;-85
2023/10/31 04:55:43;;;;;;;5.53;1.50;;;18.20;52.70;;;;;;4827373;29;20057;-86
2023/10/31 04:58:10;;;;;;;6.43;2.27;;;18.30;53.30;;;;;;4858171;29;20089;-85
2023/10/31 05:00:38;;;;;;;16.00;8.90;;;18.30;52.80;;;;;;4833998;29;20136;-86
2023/10/31 05:03:05;;;;;;;17.42;7.15;;;18.30;53.10;;;;;;4881006;29;20052;-87
2023/10/31 05:05:32;;;;;;;14.68;3.65;;;18.30;52.80;;;;;;4883544;29;20048;-88
2023/10/31 05:07:59;;;;;;;15.95;3.20;;;18.30;52.60;;;;;;4883426;29;20542;-88
2023/10/31 05:10:26;;;;;;;11.53;4.13;;;18.40;53.00;;;;;;4868015;29;20143;-88
2023/10/31 05:12:53;;;;;;;7.68;1.90;;;18.40;52.60;;;;;;4869258;29;20499;-87
2023/10/31 05:15:20;;;;;;;18.45;2.30;;;18.40;52.60;;;;;;4867923;29;20049;-88
2023/10/31 05:17:48;;;;;;;13.93;3.35;;;18.30;52.60;;;;;;4883351;29;20048;-88
2023/10/31 05:20:15;;;;;;;8.23;1.60;;;18.40;52.90;;;;;;4883194;29;20059;-88
2023/10/31 05:36:26;;;;;;;8.60;1.98;;;18.20;53.20;;;;;;5110758;27;20372;-87
2023/10/31 05:38:53;;;;;;;11.18;2.15;;;18.20;55.00;;;;;;5111072;28;20040;-87
2023/10/31 05:41:20;;;;;;;7.05;1.65;;;18.10;55.50;;;;;;5144258;27;20373;-87
2023/10/31 05:43:47;;;;;;;12.10;3.67;;;18.00;55.60;;;;;;5093267;28;20048;-87
2023/10/31 05:46:14;;;;;;;19.80;4.47;;;18.00;56.50;;;;;;5127056;28;20043;-87
2023/10/31 05:48:43;;;;;;;12.07;2.83;;;17.90;56.60;;;;;;5126661;28;20077;-87
2023/10/31 05:51:15;;;;;;;13.52;3.08;;;17.80;57.30;;;;;;5110238;28;20044;-87
2023/10/31 05:53:47;;;;;;;17.45;5.40;;;17.60;57.00;;;;;;5109894;28;20531;-86
2023/10/31 05:56:15;;;;;;;21.33;4.10;;;17.50;57.70;;;;;;5109720;28;20044;-87
2023/10/31 05:58:43;;;;;;;24.77;7.00;;;17.50;57.60;;;;;;5092731;28;20048;-87
2023/10/31 06:01:10;;;;;;;24.38;6.35;;;17.50;57.80;;;;;;5126493;28;20047;-87
2023/10/31 06:03:42;;;;;;;28.88;8.93;;;17.40;58.00;;;;;;5126180;28;20036;-87
2023/10/31 06:06:11;;;;;;;25.70;8.93;;;17.40;58.50;;;;;;5109763;28;20035;-87
2023/10/31 06:08:39;;;;;;;20.17;4.22;;;17.40;58.30;;;;;;5109632;28;20105;-86
2023/10/31 06:11:06;;;;;;;26.33;6.20;;;17.40;58.10;;;;;;5092266;28;20050;-86
2023/10/31 06:13:34;;;;;;;21.45;6.18;;;17.30;58.50;;;;;;5109192;28;20071;-86
2023/10/31 06:16:01;;;;;;;33.35;6.80;;;17.30;58.60;;;;;;5109180;28;20040;-86
2023/10/31 06:18:28;;;;;;;20.08;4.32;;;17.30;58.90;;;;;;5109078;28;20044;-86
2023/10/31 06:20:56;;;;;;;20.35;4.40;;;17.30;58.20;;;;;;5108929;28;20052;-85
2023/10/31 06:23:23;;;;;;;12.27;2.47;;;17.40;58.60;;;;;;5125816;28;20093;-86
2023/10/31 06:25:50;;;;;;;14.75;3.92;;;17.40;58.20;;;;;;5108715;28;20528;-86
2023/10/31 06:28:17;;;;;;;10.90;2.63;;;17.30;58.70;;;;;;5092077;28;20031;-86
2023/10/31 06:30:44;;;;;;;11.30;2.58;;;17.40;58.20;;;;;;5108786;28;20143;-85
2023/10/31 06:33:11;;;;;;;15.40;3.80;;;17.40;58.00;;;;;;5092328;28;20135;-86
2023/10/31 06:35:39;;;;;;;17.33;4.00;;;17.40;58.10;;;;;;5087819;28;20056;-86
2023/10/31 06:38:06;;;;;;;13.30;3.20;;;17.50;57.80;;;;;;5078256;28;20501;-86
2023/10/31 06:52:20;;;;;;;17.23;5.75;;;17.40;57.40;;;;;;5111055;27;20441;-87
2023/10/31 06:54:47;;;;;;;13.48;3.97;;;17.60;57.40;;;;;;5092973;28;20492;-87
2023/10/31 06:57:16;;;;;;;16.42;4.75;;;17.60;58.00;;;;;;5126961;28;20043;-87
2023/10/31 06:59:43;;;;;;;14.10;3.67;;;17.60;57.90;;;;;;5126772;28;20048;-87
2023/10/31 07:02:10;;;;;;;11.03;3.30;;;17.60;58.00;;;;;;5126531;28;20077;-87
2023/10/31 07:04:37;;;;;;;9.35;2.22;;;17.60;57.90;;;;;;5093215;28;20527;-86
2023/10/31 07:07:04;;;;;;;16.20;4.18;;;17.50;57.50;;;;;;5093236;28;20039;-87
2023/10/31 07:09:31;;;;;;;12.35;3.22;;;17.50;58.00;;;;;;5092762;28;20044;-87
2023/10/31 07:11:58;;;;;;;15.55;3.67;;;17.50;58.90;;;;;;5092953;28;20481;-87
2023/10/31 07:14:25;;;;;;;13.83;4.70;;;17.40;58.80;;;;;;5092943;28;20044;-87
2023/10/31 07:16:52;;;;;;;14.20;3.80;;;17.50;58.80;;;;;;5092819;28;20040;-87
2023/10/31 07:19:19;;;;;;;9.45;2.05;;;17.50;58.80;;;;;;5092649;28;20562;-87
2023/10/31 07:21:46;;;;;;;9.70;2.63;;;17.50;58.10;;;;;;5092551;28;20450;-87
2023/10/31 07:24:13;;;;;;;13.82;3.00;;;17.60;58.70;;;;;;5092703;28;20044;-87
2023/10/31 07:26:40;;;;;;;9.47;3.03;;;17.60;58.30;;;;;;5092600;28;20101;-87
2023/10/31 07:29:08;;;;;;;14.77;3.67;;;17.60;58.10;;;;;;5092751;28;20558;-87
2023/10/31 07:31:38;;;;;;;18.23;4.80;;;17.50;58.20;;;;;;5092437;28;20040;-87
2023/10/31 07:34:06;;;;;;;21.42;4.65;;;17.60;58.50;;;;;;5109479;28;20082;-87
2023/10/31 07:36:34;;;;;;;20.52;5.93;;;17.60;58.50;;;;;;5109308;28;20097;-87
2023/10/31 07:39:03;;;;;;;17.20;7.33;;;17.70;59.10;;;;;;5092592;28;20500;-87
2023/10/31 07:41:30;;;;;;;19.80;11.15;;;17.60;57.80;;;;;;5092389;28;20044;-87
2023/10/31 07:43:58;;;;;;;19.08;4.90;;;17.60;57.90;;;;;;5092434;28;20044;-87
2023/10/31 07:46:26;;;;;;;12.98;4.97;;;17.50;58.10;;;;;;5092424;28;20047;-87
2023/10/31 07:48:53;;;;;;;6.18;1.67;;;17.50;58.10;;;;;;5109123;28;20066;-87
2023/10/31 07:51:20;;;;;;;4.73;1.20;;;17.50;57.90;;;;;;5089522;28;20463;-87
2023/10/31 07:53:47;;;;;;;6.38;1.50;;;17.50;57.70;;;;;;5078742;28;20051;-87
2023/10/31 07:56:22;;;;;;;5.95;1.65;;;17.50;58.00;;;;;;5078669;28;20048;-87
2023/10/31 07:58:51;;;;;;;6.43;1.40;;;17.50;57.70;;;;;;5078619;28;20051;-87
2023/10/31 08:01:18;;;;;;;6.63;1.50;;;17.50;58.30;;;;;;5078629;28;20142;-86
2023/10/31 08:03:47;;;;;;;8.73;1.97;;;17.50;57.80;;;;;;5095261;28;20468;-86
2023/10/31 08:06:14;;;;;;;6.45;1.48;;;17.50;57.90;;;;;;5095121;28;20044;-87
2023/10/31 08:08:41;;;;;;;7.35;1.63;;;17.50;57.80;;;;;;5095050;28;20044;-87
2023/10/31 08:11:10;;;;;;;5.50;1.40;;;17.50;57.70;;;;;;5094978;28;20055;-86
2023/10/31 08:13:38;;;;;;;6.75;2.42;;;17.50;57.40;;;;;;5095116;28;20047;-87
2023/10/31 08:16:06;;;;;;;6.17;1.97;;;17.50;57.70;;;;;;5095041;28;20052;-87
2023/10/31 08:18:34;;;;;;;7.80;1.95;;;17.60;57.50;;;;;;5078278;28;20074;-87
2023/10/31 08:21:03;;;;;;;6.72;1.98;;;17.60;57.10;;;;;;5094761;28;20413;-87
2023/10/31 08:23:31;;;;;;;8.57;1.67;;;17.60;57.50;;;;;;5078185;28;20045;-87
2023/10/31 08:25:58;;;;;;;6.03;1.83;;;17.50;57.30;;;;;;5094915;28;20485;-87
2023/10/31 08:28:25;;;;;;;5.63;1.60;;;17.50;57.90;;;;;;5094802;28;20135;-87
2023/10/31 08:30:52;;;;;;;8.15;2.30;;;17.50;57.90;;;;;;5094600;28;20113;-87
2023/10/31 08:33:19;;;;;;;5.75;1.80;;;17.50;58.10;;;;;;5077836;28;20530;-87
2023/10/31 08:35:47;;;;;;;6.43;1.92;;;17.50;57.80;;;;;;5077906;28;20067;-86
2023/10/31 08:38:14;;;;;;;5.50;1.90;;;17.50;57.70;;;;;;5077606;28;20044;-87
2023/10/31 08:40:56;;;;;;;5.90;2.23;;;17.50;58.10;;;;;;5094419;28;20052;-87
2023/10/31 08:43:23;;;;;;;7.28;2.38;;;17.40;59.00;;;;;;5077817;28;20552;-87
2023/10/31 08:45:50;;;;;;;11.70;2.70;;;17.30;59.20;;;;;;5077728;28;20048;-87
2023/10/31 08:48:17;;;;;;;5.25;1.90;;;17.30;59.20;;;;;;5077779;28;20062;-87
2023/10/31 08:50:44;;;;;;;6.65;2.33;;;17.30;59.30;;;;;;5094159;28;20086;-87
2023/10/31 08:53:11;;;;;;;6.67;2.57;;;17.30;59.40;;;;;;5077319;28;20048;-86
2023/10/31 08:55:39;;;;;;;10.55;3.00;;;17.30;59.60;;;;;;5077444;28;20135;-87
2023/10/31 08:58:07;;;;;;;9.18;2.80;;;17.30;59.80;;;;;;5077254;28;20055;-86
2023/10/31 09:00:34;;;;;;;7.22;2.40;;;17.30;59.90;;;;;;5094002;28;20520;-87
2023/10/31 09:03:01;;;;;;;5.85;2.17;;;17.20;60.20;;;;;;5076809;28;20054;-86
2023/10/31 09:05:28;;;;;;;5.60;2.13;;;17.30;60.50;;;;;;5093415;28;20055;-86
2023/10/31 09:07:55;;;;;;;5.45;2.10;;;17.10;60.90;;;;;;5077135;28;20463;-87
2023/10/31 09:10:24;;;;;;;7.50;2.60;;;17.10;61.30;;;;;;5093898;28;20047;-86
2023/10/31 09:12:51;;;;;;;7.80;2.75;;;17.00;61.80;;;;;;5093981;28;20172;-87
2023/10/31 09:15:21;;;;;;;7.18;2.45;;;17.00;61.70;;;;;;5076941;28;20089;-86
2023/10/31 09:17:48;;;;;;;9.23;3.97;;;16.90;61.70;;;;;;5077097;28;20056;-86
2023/10/31 09:20:17;;;;;;;15.40;8.02;;;16.90;62.10;;;;;;5077058;28;20418;-86
2023/10/31 09:22:44;;;;;;;12.27;7.45;;;16.90;62.20;;;;;;5093564;28;20051;-87
2023/10/31 09:25:11;;;;;;;27.23;16.90;;;17.00;62.40;;;;;;5076706;28;20519;-86
2023/10/31 09:27:40;;;;;;;11.02;5.93;;;17.00;61.80;;;;;;5076668;28;20050;-86
2023/10/31 09:30:08;;;;;;;27.30;16.50;;;17.00;62.60;;;;;;5076855;28;20439;-87
2023/10/31 09:32:36;;;;;;;22.70;11.73;;;16.90;61.40;;;;;;5093388;28;20036;-86
2023/10/31 09:35:04;;;;;;;27.67;13.70;;;16.90;61.40;;;;;;5076585;28;20095;-87
2023/10/31 09:37:31;;;;;;;12.48;4.78;;;16.90;61.50;;;;;;5093201;28;20382;-86
2023/10/31 09:39:58;;;;;;;10.25;6.47;;;16.90;61.30;;;;;;5076549;28;20040;-86
2023/10/31 09:42:25;;;;;;;6.90;2.00;;;16.90;61.50;;;;;;5076552;28;20044;-87
2023/10/31 09:44:52;;;;;;;5.22;1.60;;;16.90;62.30;;;;;;5093007;28;20047;-86
2023/10/31 09:47:20;;;;;;;5.55;2.00;;;16.80;62.40;;;;;;5093035;28;20047;-87
2023/10/31 09:49:48;;;;;;;6.75;2.40;;;16.80;62.50;;;;;;5076410;28;20055;-87
2023/10/31 09:52:16;;;;;;;4.10;0.90;;;16.80;62.70;;;;;;5093058;28;20063;-87
2023/10/31 09:54:44;;;;;;;4.37;0.80;;;16.80;63.20;;;;;;5093011;28;20079;-87
2023/10/31 09:57:14;;;;;;;4.38;1.02;;;16.70;63.50;;;;;;5092943;28;20456;-86
2023/10/31 09:59:41;;;;;;;4.22;0.90;;;16.70;63.40;;;;;;5092867;28;20048;-86
2023/10/31 10:02:09;;;;;;;7.25;2.35;;;16.80;64.20;;;;;;5092784;28;20126;-87
2023/10/31 10:04:38;;;;;;;3.78;1.20;;;16.80;63.70;;;;;;5092802;28;20054;-86
2023/10/31 10:07:06;;;;;;;7.33;1.90;;;16.90;63.90;;;;;;5075972;28;20044;-87
2023/10/31 10:09:33;;;;;;;5.57;1.17;;;17.00;64.30;;;;;;5076136;28;20044;-87
2023/10/31 10:12:01;;;;;;;5.78;1.40;;;17.00;64.00;;;;;;5075933;28;20436;-86
2023/10/31 10:14:32;;;;;;;9.75;2.05;;;17.00;64.00;;;;;;5075726;28;20052;-87
2023/10/31 10:16:59;;;;;;;9.85;3.90;;;16.90;63.70;;;;;;5075974;28;20055;-87
2023/10/31 10:19:28;;;;;;;6.70;2.13;;;16.90;63.40;;;;;;5076028;28;20040;-87
2023/10/31 10:21:58;;;;;;;9.13;1.77;;;16.90;63.40;;;;;;5092376;28;20070;-87
2023/10/31 10:24:25;;;;;;;6.45;2.10;;;16.80;63.80;;;;;;5076086;28;20036;-87
2023/10/31 10:26:52;;;;;;;5.53;1.70;;;16.80;63.60;;;;;;5076096;28;20048;-87
2023/10/31 10:29:20;;;;;;;4.60;1.10;;;16.60;64.00;;;;;;5075850;28;20048;-86
2023/10/31 10:31:47;;;;;;;3.47;0.93;;;16.50;64.10;;;;;;5092359;28;20109;-86
2023/10/31 10:34:16;;;;;;;3.30;0.80;;;16.50;65.10;;;;;;5075665;28;20048;-86
2023/10/31 10:36:49;;;;;;;5.03;1.20;;;16.50;65.80;;;;;;5092539;28;20059;-86
2023/10/31 10:39:23;;;;;;;3.95;0.80;;;16.40;66.00;;;;;;5075641;28;20066;-87
2023/10/31 10:41:58;;;;;;;7.45;2.30;;;16.30;66.20;;;;;;5092941;28;20089;-86
2023/10/31 10:44:35;;;;;;;5.20;1.23;;;16.30;66.80;;;;;;5110757;28;20050;-87
2023/10/31 10:47:04;;;;;;;4.38;1.88;;;16.30;67.00;;;;;;5075943;28;20496;-86
2023/10/31 10:49:36;;;;;;;5.10;1.30;;;16.40;66.70;;;;;;5092237;28;20066;-87
2023/10/31 10:52:18;;;;;;;6.55;1.80;;;16.50;66.70;;;;;;5075590;28;20056;-87
2023/10/31 10:54:58;;;;;;;6.38;1.33;;;16.50;66.40;;;;;;5092323;28;20082;-87
2023/10/31 10:57:45;;;;;;;6.80;1.57;;;16.60;66.30;;;;;;5092137;28;20501;-86
2023/10/31 11:00:13;;;;;;;3.83;1.10;;;16.60;66.10;;;;;;5075363;28;20059;-87
2023/10/31 11:02:42;;;;;;;4.30;1.13;;;16.60;66.10;;;;;;5092267;28;20532;-87
2023/10/31 11:05:10;;;;;;;5.60;0.88;;;16.70;66.20;;;;;;5092170;28;20044;-87
2023/10/31 11:07:38;;;;;;;4.05;1.55;;;16.60;65.90;;;;;;5075225;28;20040;-86
2023/10/31 11:10:06;;;;;;;5.53;1.57;;;16.60;66.10;;;;;;5075446;28;20135;-86
2023/10/31 11:12:33;;;;;;;4.80;1.58;;;16.70;66.20;;;;;;5091781;28;20048;-87
2023/10/31 11:15:03;;;;;;;6.25;1.95;;;16.70;66.70;;;;;;5092180;28;20052;-86
2023/10/31 11:17:36;;;;;;;11.25;6.93;;;16.70;66.60;;;;;;5075243;28;20088;-87
2023/10/31 11:20:07;;;;;;;7.75;3.70;;;16.70;66.30;;;;;;5092173;28;20410;-87
2023/10/31 11:22:44;;;;;;;5.23;1.30;;;16.70;65.80;;;;;;5091625;28;20044;-86
2023/10/31 11:25:17;;;;;;;3.70;0.90;;;16.70;65.90;;;;;;5092216;28;20080;-87
2023/10/31 11:27:57;;;;;;;6.32;1.10;;;16.80;65.60;;;;;;5078909;28;20044;-86
2023/10/31 11:30:30;;;;;;;3.92;1.42;;;17.00;65.50;;;;;;5095832;28;20036;-86
2023/10/31 11:33:01;;;;;;;5.88;1.92;;;17.00;64.90;;;;;;5078794;28;20101;-86
2023/10/31 11:35:39;;;;;;;3.10;1.00;;;17.00;65.20;;;;;;5095701;28;20142;-87
2023/10/31 11:38:08;;;;;;;2.97;0.80;;;16.90;65.90;;;;;;5095749;28;20509;-87
2023/10/31 11:41:00;;;;;;;5.28;0.70;;;16.80;65.90;;;;;;5095684;28;20131;-87
2023/10/31 11:43:57;;;;;;;4.25;0.75;;;16.80;65.70;;;;;;5067825;28;20135;-87
2023/10/31 11:46:24;;;;;;;3.75;0.70;;;16.80;65.80;;;;;;5078980;28;20143;-87
2023/10/31 11:48:54;;;;;;;3.73;0.77;;;16.70;65.70;;;;;;5078736;28;20405;-87
2023/10/31 11:51:21;;;;;;;4.90;0.70;;;16.80;65.90;;;;;;5078591;28;20059;-87
2023/10/31 11:53:49;;;;;;;5.20;2.45;;;16.90;66.00;;;;;;5078505;28;20048;-87
2023/10/31 11:56:21;;;;;;;9.57;4.80;;;16.90;66.00;;;;;;5078896;28;20071;-87
2023/10/31 11:59:02;;;;;;;12.07;4.53;;;16.90;66.40;;;;;;5095392;28;20040;-86
2023/10/31 12:01:30;;;;;;;7.53;2.83;;;16.90;66.10;;;;;;5095207;28;20126;-87
2023/10/31 12:03:57;;;;;;;4.65;1.65;;;16.90;66.30;;;;;;5095104;28;20547;-87
2023/10/31 12:06:24;;;;;;;9.95;6.95;;;16.90;66.40;;;;;;5078413;28;20063;-86
2023/10/31 12:08:52;;;;;;;7.63;5.15;;;17.00;66.40;;;;;;5078428;28;20051;-87
2023/10/31 12:11:21;;;;;;;6.78;3.33;;;17.00;66.60;;;;;;5078276;28;20040;-86
2023/10/31 12:14:00;;;;;;;5.20;1.40;;;17.00;66.60;;;;;;5078261;28;20141;-86
2023/10/31 12:16:30;;;;;;;4.03;1.60;;;17.00;66.90;;;;;;5093931;28;20044;-86
2023/10/31 12:18:59;;;;;;;4.97;1.40;;;17.00;66.00;;;;;;5077871;28;20040;-86
2023/10/31 12:21:43;;;;;;;7.47;2.25;;;16.90;65.30;;;;;;5077939;28;20040;-86
2023/10/31 12:24:12;;;;;;;11.82;7.57;;;16.80;65.90;;;;;;5094570;28;20119;-86
2023/10/31 12:26:40;;;;;;;12.37;7.80;;;16.80;66.20;;;;;;5077945;28;20036;-86
2023/10/31 12:29:21;;;;;;;10.60;5.57;;;16.80;66.40;;;;;;5077753;28;20138;-86
2023/10/31 12:31:51;;;;;;;7.78;3.45;;;16.80;66.60;;;;;;5077955;28;20078;-86
2023/10/31 12:34:21;;;;;;;7.13;2.85;;;16.80;66.80;;;;;;5077783;28;20094;-86
2023/10/31 12:36:53;;;;;;;6.88;2.90;;;16.70;66.70;;;;;;5077716;28;20048;-86
2023/10/31 12:39:24;;;;;;;4.50;1.70;;;16.60;66.90;;;;;;5094294;28;20563;-86
2023/10/31 12:41:51;;;;;;;5.95;1.83;;;16.50;67.10;;;;;;5077511;28;20040;-86
2023/10/31 12:44:24;;;;;;;4.15;1.10;;;16.40;67.60;;;;;;5077733;28;20113;-86
2023/10/31 12:46:52;;;;;;;3.55;1.10;;;16.30;67.80;;;;;;5094345;28;20497;-86
2023/10/31 12:49:20;;;;;;;4.05;1.55;;;16.30;68.30;;;;;;5087828;28;20040;-86
2023/10/31 12:51:57;;;;;;;4.73;2.33;;;16.20;69.20;;;;;;5077456;28;20060;-86
2023/10/31 12:54:36;;;;;;;11.73;6.05;;;16.30;70.00;;;;;;5094050;28;20074;-87
2023/10/31 12:57:06;;;;;;;15.00;5.90;;;16.20;70.80;;;;;;5094109;28;20048;-87
2023/10/31 12:59:36;;;;;;;8.75;3.50;;;16.20;71.40;;;;;;5077347;28;20523;-87
2023/10/31 13:02:04;;;;;;;8.00;3.05;;;16.10;71.90;;;;;;5077374;28;20132;-86
2023/10/31 13:04:33;;;;;;;8.97;2.77;;;16.10;72.30;;;;;;5077308;28;20584;-86
2023/10/31 13:07:27;;;;;;;5.72;1.80;;;16.10;72.30;;;;;;5094203;28;20058;-86
2023/10/31 13:09:54;;;;;;;6.65;1.10;;;16.20;72.20;;;;;;5077457;28;20089;-87
2023/10/31 13:12:26;;;;;;;3.47;0.85;;;16.10;72.30;;;;;;5077026;28;20044;-86
2023/10/31 13:14:53;;;;;;;5.00;1.10;;;16.10;72.10;;;;;;5094096;28;20050;-87